Latest Weather Observations for Larapuna (Eddystone Point)

IDT60801

Issued at 9:31 am EDT Wednesday 24 October 2018 (issued every 10 minutes, with the page automatically refreshed every 10 minutes)

About weather observations | Map of weather stations | Latest weather observations for TAS | Other Formats
Station Details ID: 092045 Name: LARAPUNA (EDDYSTONE POINT) Lat: -40.99 Lon: 148.35 Height: 19.7 m
Data from the previous 72 hours. | See also: Recent months at Larapuna (Eddystone Point)
Date/Time
EDT
Temp
°C
App
Temp
°C
Dew
Point
°C
Rel
Hum
%
Delta-T
°C
Wind Press
QNH
hPa
Press
MSL
hPa
Rain since
9am
mm
Dir  Spd
km/h
Gust
km/h
Spd
kts
Gust
kts
24/09:00am 12.6 9.2 3.8 55 3.9 SSW 11 13 6 7 1021.9 1021.9 0.0
24/08:30am 12.1 8.6 3.3 55 3.9 SSW 11 15 6 8 1021.6 1021.6 0.0
24/08:00am 11.3 7.6 2.6 55 3.7 SSW 11 15 6 8 1021.2 1021.2 0.0
24/07:30am 10.0 7.1 1.4 55 3.6 SW 6 9 3 5 1020.8 1020.8 0.0
24/07:00am 7.8 3.4 0.3 59 3.0 W 13 15 7 8 1020.2 1020.2 0.0
24/06:30am 7.0 2.5 -0.2 60 2.8 WSW 13 15 7 8 1019.7 1019.7 0.0
24/06:00am 6.9 2.4 -0.5 59 2.8 WSW 13 15 7 8 1019.2 1019.2 0.0
24/05:30am 6.0 2.3 -0.3 64 2.4 SW 9 13 5 7 1018.5 1018.5 0.0
24/05:00am 6.2 2.6 0.5 67 2.2 WSW 9 11 5 6 1018.2 1018.2 0.0
24/04:30am 5.8 2.7 0.4 68 2.1 W 6 11 3 6 1017.9 1017.9 0.0
24/04:00am 5.8 2.6 0.6 69 2.0 WSW 7 15 4 8 1017.6 1017.6 0.0
24/03:30am 6.0 0.5 0.3 67 2.2 WNW 19 22 10 12 1017.2 1017.2 0.0
24/03:00am 6.8 1.6 0.3 63 2.5 WSW 17 20 9 11 1016.8 1016.8 0.0
24/02:30am 7.4 3.0 0.6 62 2.7 WSW 13 19 7 10 1016.8 1016.8 0.0
24/02:00am 7.8 5.7 1.4 64 2.6 W 2 9 1 5 1016.6 1016.6 0.0
24/01:30am 8.5 4.2 1.2 60 3.0 WSW 13 17 7 9 1016.2 1016.2 0.0
24/01:00am 9.7 3.9 2.1 59 3.2 SW 22 28 12 15 1016.2 1016.2 0.0
24/12:30am 10.2 4.8 1.3 54 3.7 WSW 19 30 10 16 1015.9 1015.9 0.0
24/12:00am 10.4 4.1 1.5 54 3.7 W 24 32 13 17 1015.7 1015.7 0.0
 
Date/Time
EDT
Temp
°C
App
Temp
°C
Dew
Point
°C
Rel
Hum
%
Delta-T
°C
Wind Press
QNH
hPa
Press
MSL
hPa
Rain since
9am
mm
Dir  Spd
km/h
Gust
km/h
Spd
kts
Gust
kts
23/11:30pm 11.5 4.0 1.5 50 4.2 W 30 41 16 22 1015.5 1015.5 0.0
23/11:00pm 11.7 4.7 1.9 51 4.2 W 28 37 15 20 1015.2 1015.2 0.0
23/10:30pm 11.2 5.5 2.8 56 3.6 W 22 28 12 15 1014.8 1014.8 0.0
23/10:00pm 11.3 6.8 4.3 62 3.1 WSW 17 20 9 11 1014.7 1014.7 0.0
23/09:30pm 12.0 6.1 5.9 66 2.9 SSW 26 32 14 17 1014.2 1014.2 0.0
23/09:00pm 12.1 6.4 5.0 62 3.3 W 24 33 13 18 1013.2 1013.2 0.0
23/08:30pm 12.3 6.4 5.7 64 3.1 WNW 26 39 14 21 1012.5 1012.5 0.0
23/08:00pm 12.9 6.4 6.3 64 3.1 WNW 30 44 16 24 1012.3 1012.3 0.0
23/07:30pm 13.7 8.0 6.6 62 3.4 WNW 26 41 14 22 1011.7 1011.7 0.0
23/07:00pm 14.7 8.8 7.3 61 3.6 WNW 28 41 15 22 1011.2 1011.2 0.0
23/06:30pm 16.0 9.9 6.4 53 4.7 WNW 28 39 15 21 1010.4 1010.4 0.0
23/06:02pm 16.6 10.5 6.4 51 5.0 WNW 28 46 15 25 1009.9 1009.9 0.0
23/06:00pm 16.6 10.1 6.4 51 5.0 WNW 30 46 16 25 1009.9 1009.9 0.0
23/05:30pm 16.6 9.2 6.7 52 4.9 WNW 35 56 19 30 1009.4 1009.4 0.0
23/05:00pm 16.8 9.4 6.6 51 5.0 WNW 35 54 19 29 1008.8 1008.8 0.0
23/04:30pm 16.7 8.6 6.8 52 4.9 WNW 39 57 21 31 1008.4 1008.4 0.0
23/04:00pm 17.2 8.8 7.3 52 5.0 WNW 41 61 22 33 1008.5 1008.5 0.0
23/03:51pm 17.0 8.1 6.8 51 5.1 WNW 43 61 23 33 1008.5 1008.5 0.0
23/03:30pm 16.7 8.4 7.9 56 4.4 NW 41 54 22 29 1008.6 1008.6 0.0
23/03:00pm 17.8 10.2 7.5 51 5.2 WNW 37 56 20 30 1008.6 1008.6 0.0
23/02:30pm 18.2 9.9 7.9 51 5.3 WNW 41 59 22 32 1008.5 1008.5 0.0
23/02:00pm 17.9 10.4 9.3 57 4.5 WNW 39 57 21 31 1008.5 1008.5 0.0
23/01:36pm 16.7 10.4 9.1 61 3.9 WNW 32 50 17 27 1008.6 1008.6 0.0
23/01:30pm 16.8 10.1 9.5 62 3.8 WNW 35 50 19 27 1008.6 1008.6 0.0
23/01:12pm 17.2 11.9 9.9 62 3.8 W 28 46 15 25 1007.9 1007.9 0.0
23/01:00pm 16.3 10.0 9.0 62 3.8 W 32 44 17 24 1008.0 1008.0 0.0
23/12:39pm 16.6 9.4 9.1 61 3.9 W 37 57 20 31 1008.4 1008.4 0.0
23/12:30pm 16.8 9.7 9.5 62 3.8 W 37 54 20 29 1008.4 1008.4 0.0
23/12:08pm 16.8 10.0 9.2 61 3.9 W 35 56 19 30 1008.6 1008.6 0.0
23/12:00pm 16.7 10.0 9.6 63 3.7 W 35 50 19 27 1008.5 1008.5 0.0
23/11:30am 15.8 9.3 8.1 60 3.9 W 32 43 17 23 1008.9 1008.9 0.0
23/11:00am 16.6 11.3 8.6 59 4.1 W 26 39 14 21 1008.7 1008.7 0.0
23/10:30am 17.1 11.2 9.0 59 4.2 W 30 41 16 22 1009.0 1009.0 0.0
23/10:17am 17.1 11.6 9.0 59 4.2 W 28 46 15 25 1008.9 1008.9 0.0
23/10:00am 16.9 11.8 9.3 61 4.0 W 26 43 14 23 1009.1 1009.1 0.0
23/09:30am 16.3 12.5 12.3 77 2.2 NW 24 32 13 17 1009.3 1009.3 0.0
23/09:00am 15.4 12.0 12.5 83 1.6 NNW 22 30 12 16 1009.2 1009.2 0.0
23/08:30am 15.5 11.6 12.1 80 1.9 WNW 24 30 13 16 1008.9 1008.9 0.0
23/08:00am 15.4 11.5 12.2 81 1.7 NW 24 30 13 16 1008.7 1008.7 0.0
23/07:30am 15.4 12.4 12.0 80 1.8 NW 19 28 10 15 1008.7 1008.7 0.0
23/07:00am 15.4 11.8 12.0 80 1.9 NW 22 28 12 15 1008.4 1008.4 0.0
23/06:30am 15.3 11.3 11.9 80 1.8 NW 24 32 13 17 1008.5 1008.5 0.0
23/06:00am 15.1 12.1 12.1 82 1.6 NNW 19 22 10 12 1008.0 1008.0 0.0
23/05:30am 14.6 11.0 11.7 83 1.6 NNW 22 28 12 15 1007.8 1007.8 0.0
23/05:00am 14.3 11.1 11.1 81 1.7 NNW 19 24 10 13 1008.0 1008.0 0.0
23/04:30am 13.8 10.6 10.0 78 2.0 NNW 17 22 9 12 1008.4 1008.4 0.0
23/04:00am 13.6 10.7 9.5 76 2.1 NNW 15 19 8 10 1008.5 1008.5 0.0
23/03:30am 14.4 11.3 10.2 76 2.2 NW 17 22 9 12 1009.0 1009.0 0.0
23/03:00am 15.4 11.8 11.8 79 2.0 NNW 22 28 12 15 1009.2 1009.2 0.0
23/02:30am 16.2 10.7 11.8 75 2.4 NNW 32 43 17 23 1009.6 1009.6 0.0
23/02:00am 15.0 11.2 12.5 85 1.4 NNW 24 32 13 17 1009.9 1009.9 0.0
23/01:30am 15.0 11.5 12.3 84 1.5 NNW 22 32 12 17 1009.8 1009.8 0.0
23/01:00am 15.3 9.7 12.1 81 1.7 NNW 33 43 18 23 1010.2 1010.2 0.0
23/12:30am 14.9 9.8 12.0 83 1.6 NNW 30 39 16 21 1010.3 1010.3 0.0
23/12:00am 14.8 10.3 12.5 86 1.3 N 28 35 15 19 1010.5 1010.5 0.0
 
Date/Time
EDT
Temp
°C
App
Temp
°C
Dew
Point
°C
Rel
Hum
%
Delta-T
°C
Wind Press
QNH
hPa
Press
MSL
hPa
Rain since
9am
mm
Dir  Spd
km/h
Gust
km/h
Spd
kts
Gust
kts
22/11:30pm 14.6 9.9 12.1 85 1.4 N 28 37 15 20 1010.5 1010.5 0.0
22/11:00pm 13.8 10.8 11.8 88 1.1 N 19 22 10 12 1010.6 1010.6 0.0
22/10:30pm 13.8 11.5 11.8 88 1.1 N 15 19 8 10 1010.8 1010.8 0.0
22/10:00pm 13.7 10.6 11.6 87 1.1 NNW 19 20 10 11 1011.0 1011.0 0.0
22/09:30pm 13.9 11.2 11.6 86 1.2 NNW 17 22 9 12 1011.3 1011.3 0.0
22/09:00pm 14.3 10.6 11.6 84 1.4 NNW 22 28 12 15 1011.5 1011.5 0.0
22/08:30pm 14.1 10.9 11.8 86 1.2 NNW 20 26 11 14 1011.7 1011.7 0.0
22/08:00pm 14.1 10.9 11.8 86 1.2 NNW 20 26 11 14 1011.6 1011.6 0.0
22/07:30pm 14.4 11.1 11.7 84 1.5 N 20 24 11 13 1011.5 1011.5 0.0
22/07:00pm 14.5 11.4 11.5 82 1.6 N 19 22 10 12 1011.3 1011.3 0.0
22/06:30pm 14.7 10.5 11.1 79 1.9 N 24 28 13 15 1011.0 1011.0 0.0
22/06:00pm 15.5 11.2 10.7 73 2.5 N 24 32 13 17 1011.1 1011.1 0.0
22/05:30pm 16.3 11.7 9.7 65 3.4 NNW 24 32 13 17 1011.1 1011.1 0.0
22/05:00pm 17.3 12.0 9.7 61 4.0 NNW 28 35 15 19 1011.1 1011.1 0.0
22/04:30pm 17.1 10.9 9.5 61 4.0 NNW 32 39 17 21 1011.2 1011.2 0.0
22/04:00pm 17.3 10.6 9.7 61 4.0 NNW 35 43 19 23 1011.2 1011.2 0.0
22/03:30pm 16.8 10.6 9.5 62 3.8 NNW 32 44 17 24 1011.4 1011.4 0.0
22/03:00pm 16.7 10.5 10.1 65 3.5 NNW 33 44 18 24 1011.6 1011.6 0.0
22/02:30pm 16.1 11.1 11.1 72 2.7 NNW 28 39 15 21 1011.9 1011.9 0.0
22/02:00pm 16.8 12.2 10.9 68 3.2 NNW 26 39 14 21 1012.3 1012.3 0.0
22/01:30pm 15.9 10.9 11.1 73 2.6 NNW 28 39 15 21 1012.6 1012.6 0.0
22/01:00pm 17.5 12.3 10.4 63 3.8 NW 28 37 15 20 1012.7 1012.7 0.0
22/12:30pm 16.6 10.4 9.5 63 3.7 WNW 32 41 17 22 1013.1 1013.1 0.0
22/12:00pm 16.3 9.5 9.3 63 3.6 WNW 35 44 19 24 1013.2 1013.2 0.0
22/11:30am 16.2 10.9 9.8 66 3.3 NW 28 37 15 20 1013.3 1013.3 0.0
22/11:00am 15.4 9.6 9.5 68 3.1 NW 30 43 16 23 1013.7 1013.7 0.0
22/10:30am 15.2 9.1 9.6 69 2.9 NW 32 43 17 23 1013.9 1013.9 0.0
22/10:00am 15.0 9.3 9.8 71 2.7 NW 30 43 16 23 1013.8 1013.8 0.0
22/09:30am 14.7 9.4 9.7 72 2.6 NW 28 35 15 19 1013.7 1013.7 0.0
22/09:00am 14.6 9.3 10.0 74 2.4 WNW 28 39 15 21 1013.6 1013.6 0.4
22/08:30am 13.8 7.7 9.8 77 2.1 NW 32 44 17 24 1013.6 1013.6 0.4
22/08:00am 12.9 8.5 10.3 84 1.3 NW 24 32 13 17 1013.7 1013.7 0.4
22/07:30am 12.4 8.8 10.5 88 1.0 NW 20 26 11 14 1013.6 1013.6 0.4
22/07:00am 11.8 9.0 10.0 89 0.9 NNW 15 20 8 11 1013.5 1013.5 0.4
22/06:30am 11.5 9.0 9.8 89 0.9 NNW 13 19 7 10 1013.4 1013.4 0.4
22/06:00am 11.8 8.6 9.9 88 1.0 NW 17 20 9 11 1013.4 1013.4 0.4
22/05:30am 11.7 9.6 9.9 89 0.9 NW 11 13 6 7 1013.1 1013.1 0.4
22/05:00am 11.6 9.9 9.9 89 0.9 WNW 9 11 5 6 1013.2 1013.2 0.4
22/04:30am 11.6 9.2 9.9 89 0.9 W 13 17 7 9 1013.4 1013.4 0.4
22/04:00am 11.8 9.8 10.0 89 0.9 WNW 11 15 6 8 1013.4 1013.4 0.4
22/03:30am 11.8 9.8 10.0 89 0.9 W 11 13 6 7 1013.3 1013.3 0.4
22/03:00am 11.2 7.5 9.6 90 0.8 WNW 19 22 10 12 1013.6 1013.6 0.4
22/02:30am 10.4 6.9 8.8 90 0.8 WNW 17 20 9 11 1013.7 1013.7 0.4
22/02:00am 10.7 6.7 9.1 90 0.8 WNW 20 22 11 12 1013.8 1013.8 0.4
22/01:30am 10.7 7.3 9.1 90 0.8 W 17 20 9 11 1014.1 1014.1 0.4
22/01:00am 10.9 7.2 9.3 90 0.8 W 19 26 10 14 1014.4 1014.4 0.4
22/12:30am 10.5 6.7 8.9 90 0.8 W 19 20 10 11 1014.6 1014.6 0.4
22/12:00am 10.7 7.6 9.0 89 0.8 WNW 15 20 8 11 1014.8 1014.8 0.4
 
Date/Time
EDT
Temp
°C
App
Temp
°C
Dew
Point
°C
Rel
Hum
%
Delta-T
°C
Wind Press
QNH
hPa
Press
MSL
hPa
Rain since
9am
mm
Dir  Spd
km/h
Gust
km/h
Spd
kts
Gust
kts
21/11:30pm 10.9 7.5 9.2 89 0.8 WNW 17 20 9 11 1015.0 1015.0 0.4
21/11:00pm 11.1 7.7 9.2 88 0.9 WNW 17 24 9 13 1015.0 1015.0 0.4
21/10:30pm 11.3 7.6 9.4 88 1.0 NW 19 20 10 11 1015.0 1015.0 0.4
21/10:00pm 11.4 8.8 9.3 87 1.1 NW 13 17 7 9 1015.1 1015.1 0.4
21/09:30pm 11.5 8.1 9.2 86 1.2 NW 17 20 9 11 1014.9 1014.9 0.4
21/09:00pm 11.7 9.8 9.1 84 1.3 NW 9 15 5 8 1015.0 1015.0 0.4
21/08:30pm 12.2 9.6 9.2 82 1.5 NW 13 20 7 11 1014.8 1014.8 0.4
21/08:00pm 12.6 9.5 8.7 77 1.9 WNW 15 26 8 14 1014.7 1014.7 0.4
21/07:30pm 13.2 9.0 8.3 72 2.4 WNW 20 28 11 15 1014.4 1014.4 0.4
21/07:00pm 14.0 9.2 8.8 71 2.6 NW 24 35 13 19 1014.3 1014.3 0.4
21/06:30pm 15.0 10.0 8.0 63 3.5 NW 24 35 13 19 1014.1 1014.1 0.4
21/06:00pm 15.5 9.7 8.0 61 3.8 NW 28 39 15 21 1014.0 1014.0 0.4
21/05:30pm 16.1 11.2 10.0 67 3.2 NW 26 35 14 19 1014.0 1014.0 0.4
21/05:00pm 16.3 11.7 9.7 65 3.4 NW 24 32 13 17 1014.0 1014.0 0.4
21/04:30pm 16.8 12.7 11.3 70 3.0 NW 24 35 13 19 1014.2 1014.2 0.4
21/04:00pm 14.8 11.0 11.2 79 1.9 N 22 28 12 15 1014.8 1014.8 0.4
21/03:30pm 14.9 11.7 11.1 78 2.0 N 19 26 10 14 1015.0 1015.0 0.4
21/03:00pm 15.4 11.9 10.8 74 2.4 N 20 24 11 13 1015.4 1015.4 0.4
21/02:30pm 14.8 12.3 11.0 78 2.0 N 15 20 8 11 1015.5 1015.5 0.4
21/02:00pm 14.6 13.5 10.8 78 2.0 ENE 7 9 4 5 1015.9 1015.9 0.4
21/01:30pm 15.1 13.6 10.7 75 2.3 E 9 11 5 6 1015.8 1015.8 0.4
21/01:00pm 15.1 13.9 11.7 80 1.8 SSE 9 11 5 6 1016.0 1016.0 0.2
21/12:30pm 14.3 12.3 11.6 84 1.4 S 13 15 7 8 1016.3 1016.3 0.2
21/12:00pm 14.6 12.3 11.9 84 1.5 S 15 17 8 9 1016.7 1016.7 0.2
21/11:30am 14.7 12.3 12.6 87 1.1 SSW 17 20 9 11 1016.7 1016.7 0.2
21/11:00am 15.2 13.1 13.7 91 0.8 S 17 22 9 12 1017.1 1017.1 0.2
21/10:30am 14.1 11.4 13.0 93 0.6 SSW 19 22 10 12 1017.2 1017.2 0.2
21/10:00am 13.0 8.7 11.9 93 0.6 SSW 26 30 14 16 1017.2 1017.2 0.2

Other Formats:

Comma delimited format used in spreadsheet applications
http://www.bom.gov.au/fwo/IDT60801/IDT60801.94983.axf

JavaScript Object Notation format (JSON) in row-major order
http://www.bom.gov.au/fwo/IDT60801/IDT60801.94983.json